Harriman, New York
Current Conditions -  °F | °C
As of 12:45 PM on Thursday 29 Jan 2015 (Local Time) from KSWF Reporting Station
Broken Clouds Broken Clouds  
Wind Chill: 25°   Ceiling: 10000
Heat Index: 25°   Visibility: 20mi
Dew Point:   Wind: 0mph
Humidity: 46%   Direction: NA
Pressure: 30.21"   Gusts: NA
Location:  41.31°N, 74.14°W
Report Text: KSWF 291745Z 00000KT 20SM BKN100 M04/M14 A3021
Loading
Personal Weather Stations






























Interactive Weather Map New forecast layout! Learn more

10-Day Weather Forecast

Advertisements
Track Severe Weather on mobile